createdAt,value
2022-11-05T00:00:36.991Z,9.10
2022-11-05T00:03:22.885Z,9.12
2022-11-05T00:06:11.558Z,9.05
2022-11-05T00:08:57.523Z,9.08
2022-11-05T00:11:44.011Z,9.07
2022-11-05T00:14:29.058Z,9.12
2022-11-05T00:16:55.526Z,9.05
2022-11-05T00:19:21.994Z,8.97
2022-11-05T00:22:07.135Z,8.95
2022-11-05T00:24:52.038Z,8.94
2022-11-05T00:27:18.555Z,8.97
2022-11-05T00:29:45.000Z,8.97
2022-11-05T00:32:11.462Z,8.97
2022-11-05T00:34:37.887Z,8.94
2022-11-05T00:37:04.401Z,8.91
2022-11-05T00:39:30.851Z,8.97
2022-11-05T00:42:15.796Z,8.95
2022-11-05T00:45:01.046Z,8.91
2022-11-05T00:47:46.749Z,8.91
2022-11-05T00:50:13.459Z,8.92
2022-11-05T00:52:56.209Z,8.87
2022-11-05T00:55:31.148Z,8.83
2022-11-05T00:57:57.694Z,8.83
2022-11-05T01:00:26.467Z,8.78
2022-11-05T01:02:53.534Z,8.77
2022-11-05T01:05:20.368Z,8.74
2022-11-05T01:07:47.782Z,8.65
2022-11-05T01:10:14.346Z,8.64
2022-11-05T01:12:40.835Z,8.59
2022-11-05T01:15:07.908Z,8.54
2022-11-05T01:17:34.369Z,8.53
2022-11-05T01:20:00.802Z,8.53
2022-11-05T01:22:27.351Z,8.50
2022-11-05T01:24:54.001Z,8.50
2022-11-05T01:27:20.414Z,8.52
2022-11-05T01:29:46.883Z,8.47
2022-11-05T01:32:13.806Z,8.43
2022-11-05T01:34:40.218Z,8.43
2022-11-05T01:37:06.632Z,8.40
2022-11-05T01:39:33.248Z,8.42
2022-11-05T01:42:00.973Z,8.37
2022-11-05T01:44:52.210Z,8.34
2022-11-05T01:47:34.656Z,8.32
2022-11-05T01:50:06.826Z,8.29
2022-11-05T01:52:34.958Z,8.26
2022-11-05T01:55:03.321Z,8.23
2022-11-05T01:57:31.678Z,8.21
2022-11-05T02:00:01.251Z,8.17
2022-11-05T02:02:29.086Z,8.16
2022-11-05T02:05:00.302Z,8.13
2022-11-05T02:07:28.359Z,8.12
2022-11-05T02:10:02.233Z,8.15
2022-11-05T02:12:29.633Z,8.13
2022-11-05T02:14:57.107Z,8.10
2022-11-05T02:17:33.869Z,8.10
2022-11-05T02:20:10.135Z,8.12
2022-11-05T02:22:48.679Z,8.13
2022-11-05T02:25:57.538Z,8.06
2022-11-05T02:28:46.551Z,8.05
2022-11-05T02:31:27.425Z,8.01
2022-11-05T02:34:06.010Z,7.88
2022-11-05T02:37:05.633Z,7.79
2022-11-05T02:39:46.998Z,7.70
2022-11-05T02:42:34.988Z,7.60
2022-11-05T02:45:32.352Z,7.50
2022-11-05T02:48:12.999Z,7.43
2022-11-05T02:51:03.411Z,7.34
2022-11-05T02:53:41.750Z,7.30
2022-11-05T02:56:16.701Z,7.27
2022-11-05T02:58:43.233Z,7.23
2022-11-05T03:01:12.480Z,7.17
2022-11-05T03:03:48.438Z,7.12
2022-11-05T03:06:33.608Z,7.06
2022-11-05T03:09:33.260Z,7.04
2022-11-05T03:12:23.752Z,6.97
2022-11-05T03:15:05.663Z,6.99
2022-11-05T03:17:37.811Z,6.97
2022-11-05T03:20:19.253Z,6.96
2022-11-05T03:23:02.819Z,6.92
2022-11-05T03:25:32.247Z,6.92
2022-11-05T03:28:05.353Z,6.89
2022-11-05T03:30:33.717Z,6.86
2022-11-05T03:33:05.636Z,6.88
2022-11-05T03:35:37.288Z,6.93
2022-11-05T03:38:13.363Z,6.93
2022-11-05T03:40:42.454Z,6.91
2022-11-05T03:43:09.818Z,6.91
2022-11-05T03:45:50.471Z,6.88
2022-11-05T03:48:19.238Z,6.88
2022-11-05T03:50:57.850Z,6.83
2022-11-05T03:53:30.590Z,6.83
2022-11-05T03:56:06.869Z,6.82
2022-11-05T03:58:35.180Z,6.79
2022-11-05T04:01:03.449Z,6.75
2022-11-05T04:03:36.170Z,6.73
2022-11-05T04:06:23.308Z,6.73
2022-11-05T04:09:08.144Z,6.72
2022-11-05T04:11:53.312Z,6.71
2022-11-05T04:14:19.882Z,6.68
2022-11-05T04:17:05.079Z,6.67
2022-11-05T04:19:50.920Z,6.65
2022-11-05T04:22:35.914Z,6.61
2022-11-05T04:25:02.421Z,6.62
2022-11-05T04:27:28.886Z,6.64
2022-11-05T04:30:13.940Z,6.61
2022-11-05T04:32:40.454Z,6.56
2022-11-05T04:35:06.966Z,6.58
2022-11-05T04:37:33.539Z,6.51
2022-11-05T04:40:00.037Z,6.49
2022-11-05T04:42:27.905Z,6.51
2022-11-05T04:44:54.357Z,6.51
2022-11-05T04:47:20.843Z,6.55
2022-11-05T04:49:47.325Z,6.56
2022-11-05T04:52:13.814Z,6.59
2022-11-05T04:54:40.273Z,6.58
2022-11-05T04:57:06.676Z,6.54
2022-11-05T04:59:33.146Z,6.54
2022-11-05T05:02:00.186Z,6.51
2022-11-05T05:04:26.878Z,6.52
2022-11-05T05:06:53.600Z,6.49
2022-11-05T05:09:20.108Z,6.48
2022-11-05T05:11:46.584Z,6.45
2022-11-05T05:14:13.012Z,6.46
2022-11-05T05:16:39.495Z,6.41
2022-11-05T05:19:06.143Z,6.37
2022-11-05T05:21:38.618Z,6.32
2022-11-05T05:24:18.492Z,6.28
2022-11-05T05:26:47.350Z,6.32
2022-11-05T05:29:14.320Z,6.21
2022-11-05T05:31:41.669Z,6.20
2022-11-05T05:34:11.028Z,6.17
2022-11-05T05:36:37.615Z,6.20
2022-11-05T05:39:08.649Z,6.16
2022-11-05T05:41:35.116Z,6.13
2022-11-05T05:44:01.591Z,6.07
2022-11-05T05:46:28.018Z,6.07
2022-11-05T05:48:54.481Z,6.10
2022-11-05T05:51:20.962Z,6.07
2022-11-05T05:53:47.416Z,6.06
2022-11-05T05:56:19.217Z,6.09
2022-11-05T05:58:46.218Z,6.06
2022-11-05T06:01:18.864Z,6.06
2022-11-05T06:03:47.356Z,6.03
2022-11-05T06:06:19.579Z,6.00
2022-11-05T06:08:46.771Z,5.96
2022-11-05T06:11:13.680Z,5.92
2022-11-05T06:13:40.178Z,5.92
2022-11-05T06:16:08.568Z,5.96
2022-11-05T06:18:35.762Z,5.93
2022-11-05T06:21:07.467Z,5.94
2022-11-05T06:23:35.446Z,5.99
2022-11-05T06:26:03.862Z,6.02
2022-11-05T06:28:30.745Z,6.02
2022-11-05T06:30:57.693Z,5.97
2022-11-05T06:33:24.514Z,5.99
2022-11-05T06:35:51.269Z,6.02
2022-11-05T06:38:17.906Z,6.02
2022-11-05T06:40:44.425Z,5.97
2022-11-05T06:43:11.381Z,6.00
2022-11-05T06:45:38.048Z,5.93
2022-11-05T06:48:04.833Z,5.97
2022-11-05T06:50:31.323Z,5.96
2022-11-05T06:53:03.654Z,6.02
2022-11-05T06:55:31.608Z,6.00
2022-11-05T06:57:58.157Z,6.02
2022-11-05T07:00:25.137Z,6.10
2022-11-05T07:02:51.547Z,6.07
2022-11-05T07:05:18.515Z,6.10
2022-11-05T07:07:45.891Z,6.10
2022-11-05T07:10:15.260Z,6.11
2022-11-05T07:12:42.964Z,6.14
2022-11-05T07:15:11.451Z,6.16
2022-11-05T07:17:39.197Z,6.21
2022-11-05T07:20:07.422Z,6.23
2022-11-05T07:22:35.398Z,6.25
2022-11-05T07:25:02.166Z,6.27
2022-11-05T07:27:28.871Z,6.31
2022-11-05T07:29:55.304Z,6.30
2022-11-05T07:32:21.723Z,6.32
2022-11-05T07:34:48.267Z,6.48
2022-11-05T07:37:16.608Z,6.62
2022-11-05T07:39:43.201Z,6.72
2022-11-05T07:42:13.636Z,6.86
2022-11-05T07:44:40.195Z,6.95
2022-11-05T07:47:06.639Z,7.02
2022-11-05T07:49:33.134Z,6.96
2022-11-05T07:51:59.663Z,7.12
2022-11-05T07:54:26.745Z,7.17
2022-11-05T07:56:53.221Z,7.30
2022-11-05T07:59:19.801Z,7.34
2022-11-05T08:01:46.559Z,7.55
2022-11-05T08:04:13.796Z,7.74
2022-11-05T08:06:40.678Z,7.85
2022-11-05T08:09:07.194Z,7.77
2022-11-05T08:11:35.130Z,7.72
2022-11-05T08:14:01.570Z,7.74
2022-11-05T08:16:28.100Z,7.95
2022-11-05T08:18:54.662Z,8.03
2022-11-05T08:21:21.324Z,7.85
2022-11-05T08:23:47.879Z,7.92
2022-11-05T08:26:14.430Z,7.92
2022-11-05T08:28:41.459Z,8.13
2022-11-05T08:31:07.889Z,8.33
2022-11-05T08:33:34.849Z,8.49
2022-11-05T08:36:04.439Z,8.50
2022-11-05T08:38:31.004Z,8.16
2022-11-05T08:40:58.262Z,8.37
2022-11-05T08:43:25.198Z,8.33
2022-11-05T08:45:51.884Z,8.25
2022-11-05T08:48:19.366Z,8.39
2022-11-05T08:50:48.357Z,8.40
2022-11-05T08:53:15.505Z,8.64
2022-11-05T08:55:43.827Z,8.84
2022-11-05T08:58:12.561Z,9.16
2022-11-05T09:00:39.821Z,9.31
2022-11-05T09:03:09.078Z,9.56
2022-11-05T09:05:39.010Z,9.73
2022-11-05T09:08:06.945Z,10.00
2022-11-05T09:10:33.575Z,10.14
2022-11-05T09:13:00.103Z,10.58
2022-11-05T09:15:27.697Z,11.60
2022-11-05T09:17:55.054Z,12.52
2022-11-05T09:20:22.069Z,13.69
2022-11-05T09:22:48.982Z,14.69
2022-11-05T09:25:15.913Z,14.03
2022-11-05T09:27:42.697Z,14.28
2022-11-05T09:30:10.499Z,15.58
2022-11-05T09:32:36.954Z,15.95
2022-11-05T09:35:04.065Z,15.63
2022-11-05T09:37:30.598Z,17.21
2022-11-05T09:39:57.545Z,17.43
2022-11-05T09:42:29.317Z,18.38
2022-11-05T09:45:05.238Z,18.01
2022-11-05T09:47:40.729Z,17.28
2022-11-05T09:50:13.769Z,17.14
2022-11-05T09:52:41.730Z,17.45
2022-11-05T09:55:19.932Z,17.90
2022-11-05T09:57:54.527Z,18.16
2022-11-05T10:00:21.141Z,16.76
2022-11-05T10:02:55.649Z,15.27
2022-11-05T10:05:24.803Z,14.31
2022-11-05T10:07:55.491Z,13.56
2022-11-05T10:10:40.927Z,12.70
2022-11-05T10:13:34.440Z,12.33
2022-11-05T10:16:07.343Z,12.21
2022-11-05T10:18:39.426Z,12.12
2022-11-05T10:21:07.162Z,12.18
2022-11-05T10:23:34.317Z,12.05
2022-11-05T10:26:05.626Z,11.95
2022-11-05T10:28:34.380Z,11.95
2022-11-05T10:31:08.101Z,12.08
2022-11-05T10:33:48.488Z,11.98
2022-11-05T10:36:24.123Z,12.01
2022-11-05T10:38:51.318Z,11.98
2022-11-05T10:41:24.368Z,12.01
2022-11-05T10:43:54.293Z,12.15
2022-11-05T10:46:38.110Z,11.85
2022-11-05T10:49:30.318Z,11.78
2022-11-05T10:51:59.769Z,11.78
2022-11-05T10:54:33.516Z,11.53
2022-11-05T10:57:00.012Z,11.64
2022-11-05T10:59:29.354Z,11.68
2022-11-05T11:02:03.232Z,11.67
2022-11-05T11:04:36.508Z,11.72
2022-11-05T11:07:04.748Z,11.74
2022-11-05T11:09:35.664Z,11.58
2022-11-05T11:12:16.920Z,11.58
2022-11-05T11:14:59.972Z,11.62
2022-11-05T11:17:32.361Z,11.64
2022-11-05T11:20:30.745Z,11.68
2022-11-05T11:23:04.517Z,11.99
2022-11-05T11:25:41.872Z,12.22
2022-11-05T11:28:19.178Z,12.47
2022-11-05T11:30:52.025Z,12.42
2022-11-05T11:33:23.988Z,12.18
2022-11-05T11:35:50.583Z,12.08
2022-11-05T11:38:17.442Z,11.95
2022-11-05T11:40:45.028Z,11.91
2022-11-05T11:43:25.546Z,11.82
2022-11-05T11:45:54.158Z,11.89
2022-11-05T11:48:30.838Z,11.96
2022-11-05T11:50:58.774Z,12.13
2022-11-05T11:53:35.835Z,12.19
2022-11-05T11:56:12.357Z,12.26
2022-11-05T11:58:40.556Z,12.32
2022-11-05T12:01:19.370Z,12.39
2022-11-05T12:04:33.968Z,12.37
2022-11-05T12:07:28.360Z,12.23
2022-11-05T12:10:11.108Z,12.30
2022-11-05T12:13:01.740Z,12.40
2022-11-05T12:15:37.232Z,12.21
2022-11-05T12:18:06.142Z,12.37
2022-11-05T12:21:06.370Z,12.70
2022-11-05T12:23:48.006Z,12.98
2022-11-05T12:26:32.354Z,13.11
2022-11-05T12:29:19.154Z,13.16
2022-11-05T12:32:13.708Z,13.38
2022-11-05T12:35:11.737Z,13.41
2022-11-05T12:37:54.645Z,13.45
2022-11-05T12:40:36.511Z,13.32
2022-11-05T12:43:19.551Z,13.08
2022-11-05T12:46:13.327Z,12.81
2022-11-05T12:49:05.520Z,12.71
2022-11-05T12:51:41.121Z,12.67
2022-11-05T12:54:37.118Z,12.88
2022-11-05T12:57:05.376Z,12.83
2022-11-05T12:59:37.312Z,12.74
2022-11-05T13:02:25.013Z,13.04
2022-11-05T13:05:00.987Z,12.77
2022-11-05T13:07:35.713Z,12.44
2022-11-05T13:10:10.333Z,11.99
2022-11-05T13:12:39.485Z,11.81
2022-11-05T13:15:26.616Z,11.62
2022-11-05T13:18:04.369Z,11.43
2022-11-05T13:20:38.365Z,11.24
2022-11-05T13:23:16.404Z,11.27
2022-11-05T13:25:50.518Z,11.20
2022-11-05T13:28:24.752Z,11.06
2022-11-05T13:30:54.867Z,11.00
2022-11-05T13:33:25.915Z,10.93
2022-11-05T13:36:23.451Z,10.89
2022-11-05T13:38:59.133Z,11.10
2022-11-05T13:41:38.297Z,11.13
2022-11-05T13:44:29.357Z,11.34
2022-11-05T13:47:11.782Z,11.55
2022-11-05T13:49:51.686Z,11.78
2022-11-05T13:52:41.171Z,12.05
2022-11-05T13:55:36.523Z,12.23
2022-11-05T13:58:30.890Z,12.37
2022-11-05T14:01:31.409Z,12.59
2022-11-05T14:03:58.270Z,12.65
2022-11-05T14:06:30.833Z,12.73
2022-11-05T14:09:01.873Z,12.67
2022-11-05T14:11:32.918Z,12.43
2022-11-05T14:14:06.886Z,12.26
2022-11-05T14:16:53.444Z,11.98
2022-11-05T14:19:19.844Z,11.77
2022-11-05T14:21:52.366Z,11.55
2022-11-05T14:24:21.670Z,11.48
2022-11-05T14:27:00.484Z,11.23
2022-11-05T14:29:41.694Z,11.12
2022-11-05T14:32:17.066Z,10.95
2022-11-05T14:35:21.250Z,10.83
2022-11-05T14:37:55.579Z,10.79
2022-11-05T14:40:21.986Z,10.77
2022-11-05T14:42:54.556Z,10.68
2022-11-05T14:45:30.039Z,10.63
2022-11-05T14:48:05.071Z,10.51
2022-11-05T14:50:42.499Z,10.30
2022-11-05T14:53:33.595Z,10.18
2022-11-05T14:56:04.362Z,9.97
2022-11-05T14:58:42.422Z,9.82
2022-11-05T15:01:15.630Z,9.69
2022-11-05T15:03:46.377Z,9.63
2022-11-05T15:06:31.450Z,9.69
2022-11-05T15:09:00.869Z,9.72
2022-11-05T15:11:27.316Z,9.63
2022-11-05T15:13:53.730Z,9.56
2022-11-05T15:16:30.602Z,9.47
2022-11-05T15:18:58.061Z,9.49
2022-11-05T15:21:25.456Z,9.31
2022-11-05T15:23:56.644Z,9.07
2022-11-05T15:26:39.145Z,8.84
2022-11-05T15:29:16.937Z,8.64
2022-11-05T15:31:45.298Z,8.43
2022-11-05T15:34:20.544Z,8.22
2022-11-05T15:36:53.802Z,8.05
2022-11-05T15:39:48.200Z,7.85
2022-11-05T15:42:17.676Z,7.70
2022-11-05T15:44:49.524Z,7.57
2022-11-05T15:47:24.559Z,7.40
2022-11-05T15:50:03.023Z,7.33
2022-11-05T15:52:36.345Z,7.20
2022-11-05T15:55:07.718Z,7.10
2022-11-05T15:57:39.292Z,6.99
2022-11-05T16:00:16.819Z,6.88
2022-11-05T16:02:49.363Z,6.79
2022-11-05T16:05:15.994Z,6.67
2022-11-05T16:07:47.193Z,6.62
2022-11-05T16:10:24.100Z,6.55
2022-11-05T16:12:50.699Z,6.49
2022-11-05T16:15:23.638Z,6.44
2022-11-05T16:17:53.997Z,6.35
2022-11-05T16:20:29.602Z,6.27
2022-11-05T16:23:03.689Z,6.21
2022-11-05T16:25:41.882Z,6.14
2022-11-05T16:28:28.920Z,6.09
2022-11-05T16:31:02.455Z,6.02
2022-11-05T16:33:39.234Z,5.97
2022-11-05T16:36:07.895Z,5.93
2022-11-05T16:38:34.618Z,5.86
2022-11-05T16:41:01.109Z,5.82
2022-11-05T16:43:27.706Z,5.76
2022-11-05T16:45:57.054Z,5.67
2022-11-05T16:48:24.249Z,5.66
2022-11-05T16:50:51.083Z,5.66
2022-11-05T16:53:17.812Z,5.59
2022-11-05T16:55:45.331Z,5.56
2022-11-05T16:58:23.396Z,5.53
2022-11-05T17:00:52.020Z,5.52
2022-11-05T17:03:18.586Z,5.65
2022-11-05T17:05:45.067Z,5.85
2022-11-05T17:08:11.942Z,5.76
2022-11-05T17:10:38.976Z,5.90
2022-11-05T17:13:05.570Z,5.79
2022-11-05T17:15:35.403Z,5.69
2022-11-05T17:18:03.811Z,5.74
2022-11-05T17:20:41.084Z,5.67
2022-11-05T17:23:10.390Z,5.58
2022-11-05T17:25:37.968Z,5.59
2022-11-05T17:28:05.109Z,5.53
2022-11-05T17:30:31.907Z,5.46
2022-11-05T17:32:58.685Z,5.38
2022-11-05T17:35:25.454Z,5.31
2022-11-05T17:37:52.019Z,5.24
2022-11-05T17:40:21.406Z,5.17
2022-11-05T17:42:48.422Z,5.14
2022-11-05T17:45:15.444Z,5.17
2022-11-05T17:47:42.292Z,5.08
2022-11-05T17:50:11.256Z,5.11
2022-11-05T17:52:38.021Z,5.11
2022-11-05T17:55:08.509Z,5.17
2022-11-05T17:57:34.915Z,5.18
2022-11-05T18:00:01.609Z,5.12
2022-11-05T18:02:29.455Z,5.12
2022-11-05T18:04:56.081Z,5.30
2022-11-05T18:07:22.604Z,5.28
2022-11-05T18:09:49.007Z,5.17
2022-11-05T18:12:15.486Z,5.05
2022-11-05T18:14:41.935Z,5.04
2022-11-05T18:17:08.569Z,5.01
2022-11-05T18:19:38.169Z,4.87
2022-11-05T18:22:04.623Z,4.79
2022-11-05T18:24:32.135Z,4.64
2022-11-05T18:26:58.953Z,4.56
2022-11-05T18:29:25.719Z,4.48
2022-11-05T18:31:52.249Z,4.45
2022-11-05T18:34:18.700Z,4.39
2022-11-05T18:36:45.845Z,4.32
2022-11-05T18:39:12.491Z,4.31
2022-11-05T18:41:39.465Z,4.28
2022-11-05T18:44:06.305Z,4.25
2022-11-05T18:46:57.259Z,4.21
2022-11-05T18:49:20.166Z,4.16
2022-11-05T18:51:46.638Z,4.15
2022-11-05T18:54:13.149Z,4.09
2022-11-05T18:56:45.135Z,4.08
2022-11-05T18:59:35.038Z,4.03
2022-11-05T19:01:59.985Z,4.05
2022-11-05T19:04:26.992Z,4.03
2022-11-05T19:06:53.585Z,4.03
2022-11-05T19:09:20.802Z,4.01
2022-11-05T19:11:47.474Z,3.98
2022-11-05T19:14:14.009Z,3.97
2022-11-05T19:16:40.498Z,3.97
2022-11-05T19:19:07.719Z,3.94
2022-11-05T19:21:34.312Z,3.91
2022-11-05T19:24:03.755Z,3.85
2022-11-05T19:26:30.708Z,3.80
2022-11-05T19:28:59.274Z,3.74
2022-11-05T19:31:26.570Z,3.67
2022-11-05T19:33:53.758Z,3.60
2022-11-05T19:36:22.227Z,3.51
2022-11-05T19:38:53.272Z,3.44
2022-11-05T19:41:21.401Z,3.37
2022-11-05T19:43:48.160Z,3.34
2022-11-05T19:46:18.538Z,3.32
2022-11-05T19:48:45.906Z,3.27
2022-11-05T19:51:21.499Z,3.24
2022-11-05T19:53:48.974Z,3.20
2022-11-05T19:56:20.893Z,3.18
2022-11-05T19:58:47.628Z,3.18
2022-11-05T20:01:15.338Z,3.15
2022-11-05T20:03:42.001Z,3.09
2022-11-05T20:06:14.221Z,3.05
2022-11-05T20:08:59.861Z,2.96
2022-11-05T20:11:29.068Z,2.93
2022-11-05T20:13:56.479Z,2.89
2022-11-05T20:16:26.223Z,2.87
2022-11-05T20:18:53.377Z,2.84
2022-11-05T20:21:20.131Z,2.79
2022-11-05T20:23:47.564Z,2.77
2022-11-05T20:26:14.893Z,2.70
2022-11-05T20:28:43.572Z,2.66
2022-11-05T20:31:15.245Z,2.65
2022-11-05T20:33:42.567Z,2.61
2022-11-05T20:36:13.004Z,2.60
2022-11-05T20:38:39.642Z,2.60
2022-11-05T20:41:09.246Z,2.61
2022-11-05T20:43:37.054Z,2.60
2022-11-05T20:46:04.220Z,2.55
2022-11-05T20:48:32.560Z,2.52
2022-11-05T20:50:59.261Z,2.55
2022-11-05T20:53:25.959Z,2.54
2022-11-05T20:55:52.389Z,2.55
2022-11-05T20:58:19.018Z,2.52
2022-11-05T21:00:54.211Z,2.52
2022-11-05T21:03:21.354Z,2.48
2022-11-05T21:05:50.163Z,2.47
2022-11-05T21:08:16.763Z,2.41
2022-11-05T21:10:50.044Z,2.41
2022-11-05T21:13:18.242Z,2.42
2022-11-05T21:15:50.211Z,2.37
2022-11-05T21:18:18.093Z,2.37
2022-11-05T21:20:46.806Z,2.37
2022-11-05T21:23:14.657Z,2.36
2022-11-05T21:25:42.715Z,2.34
2022-11-05T21:28:11.210Z,2.33
2022-11-05T21:30:41.604Z,2.30
2022-11-05T21:33:09.151Z,2.30
2022-11-05T21:35:40.939Z,2.29
2022-11-05T21:38:07.707Z,2.26
2022-11-05T21:40:34.429Z,2.24
2022-11-05T21:43:00.892Z,2.20
2022-11-05T21:45:27.714Z,2.16
2022-11-05T21:47:54.178Z,2.13
2022-11-05T21:50:40.681Z,2.10
2022-11-05T21:53:31.426Z,2.07
2022-11-05T21:56:16.800Z,2.05
2022-11-05T21:59:02.061Z,2.00
2022-11-05T22:01:29.094Z,2.00
2022-11-05T22:04:00.306Z,1.98
2022-11-05T22:06:31.589Z,1.98
2022-11-05T22:08:58.082Z,1.98
2022-11-05T22:11:24.511Z,1.95
2022-11-05T22:13:52.730Z,1.93
2022-11-05T22:16:19.179Z,1.95
2022-11-05T22:18:45.671Z,1.96
2022-11-05T22:21:17.928Z,1.96
2022-11-05T22:23:44.556Z,1.96
2022-11-05T22:26:10.984Z,1.98
2022-11-05T22:28:37.434Z,1.98
2022-11-05T22:31:03.846Z,1.98
2022-11-05T22:33:31.062Z,1.96
2022-11-05T22:35:57.687Z,1.95
2022-11-05T22:38:24.242Z,1.98
2022-11-05T22:40:50.718Z,1.98
2022-11-05T22:43:17.169Z,1.99
2022-11-05T22:45:43.761Z,2.03
2022-11-05T22:48:10.768Z,2.06
2022-11-05T22:50:38.067Z,2.14
2022-11-05T22:53:04.800Z,2.17
2022-11-05T22:55:31.343Z,2.21
2022-11-05T22:57:57.758Z,2.27
2022-11-05T23:00:35.867Z,2.30
2022-11-05T23:03:02.971Z,2.33
2022-11-05T23:05:29.947Z,2.40
2022-11-05T23:08:15.672Z,2.44
2022-11-05T23:11:00.737Z,2.50
2022-11-05T23:13:27.369Z,2.54
2022-11-05T23:16:12.467Z,2.54
2022-11-05T23:18:57.339Z,2.54
2022-11-05T23:21:44.103Z,2.50
2022-11-05T23:24:12.775Z,2.48
2022-11-05T23:26:51.923Z,2.45
2022-11-05T23:29:24.082Z,2.47
2022-11-05T23:32:09.877Z,2.61
2022-11-05T23:34:36.660Z,2.64
2022-11-05T23:37:22.334Z,2.64
2022-11-05T23:39:48.934Z,2.64
2022-11-05T23:42:34.021Z,2.68
2022-11-05T23:45:18.923Z,2.66
2022-11-05T23:48:04.394Z,2.64
2022-11-05T23:50:35.667Z,2.68
2022-11-05T23:53:06.678Z,2.70
2022-11-05T23:55:33.165Z,2.64
2022-11-05T23:57:59.585Z,2.55
